createdAt,value
2022-08-19T00:00:10.086Z,1010
2022-08-19T00:01:10.082Z,1010
2022-08-19T00:02:10.088Z,1010
2022-08-19T00:03:10.098Z,1010
2022-08-19T00:04:10.083Z,1010
2022-08-19T00:05:10.086Z,1010
2022-08-19T00:06:10.081Z,1010
2022-08-19T00:08:10.100Z,1010
2022-08-19T00:10:10.087Z,1010
2022-08-19T00:11:10.088Z,1010
2022-08-19T00:13:10.102Z,1010
2022-08-19T00:14:10.091Z,1010
2022-08-19T00:15:10.098Z,1010
2022-08-19T00:16:10.097Z,1010
2022-08-19T00:17:10.113Z,1010
2022-08-19T00:18:10.100Z,1010
2022-08-19T00:20:10.098Z,1010
2022-08-19T00:21:10.100Z,1010.1
2022-08-19T00:22:10.096Z,1010
2022-08-19T00:23:10.095Z,1010
2022-08-19T00:24:10.092Z,1010
2022-08-19T00:25:10.101Z,1010
2022-08-19T00:26:10.099Z,1009.9
2022-08-19T00:27:25.562Z,1010
2022-08-19T00:28:10.100Z,1010
2022-08-19T00:29:10.100Z,1010
2022-08-19T00:30:10.106Z,1010
2022-08-19T00:31:10.098Z,1010
2022-08-19T00:32:10.792Z,1010
2022-08-19T00:33:10.106Z,1010
2022-08-19T00:34:10.102Z,1010
2022-08-19T00:35:10.101Z,1010
2022-08-19T00:36:10.096Z,1009.9
2022-08-19T00:37:10.103Z,1009.9
2022-08-19T00:38:10.133Z,1010
2022-08-19T00:39:10.125Z,1010
2022-08-19T00:40:10.201Z,1009.9
2022-08-19T00:41:10.101Z,1009.9
2022-08-19T00:42:10.103Z,1009.9
2022-08-19T00:43:10.100Z,1009.9
2022-08-19T00:44:10.104Z,1010
2022-08-19T00:46:10.116Z,1010
2022-08-19T00:47:14.387Z,1010
2022-08-19T00:48:11.742Z,1010
2022-08-19T00:49:10.118Z,1010
2022-08-19T00:50:10.108Z,1010
2022-08-19T00:51:10.115Z,1010
2022-08-19T00:52:10.110Z,1010
2022-08-19T00:53:10.127Z,1010
2022-08-19T00:54:10.115Z,1010
2022-08-19T00:55:10.108Z,1010
2022-08-19T00:56:10.122Z,1010
2022-08-19T00:57:10.128Z,1010
2022-08-19T00:58:10.104Z,1010
2022-08-19T00:59:10.148Z,1010
2022-08-19T01:00:10.109Z,1010
2022-08-19T01:01:10.197Z,1009.9
2022-08-19T01:02:10.122Z,1009.9
2022-08-19T01:03:10.124Z,1009.9
2022-08-19T01:04:10.118Z,1009.9
2022-08-19T01:05:10.116Z,1009.9
2022-08-19T01:06:10.120Z,1009.9
2022-08-19T01:07:10.131Z,1009.9
2022-08-19T01:08:10.128Z,1009.9
2022-08-19T01:09:10.125Z,1009.9
2022-08-19T01:10:10.114Z,1009.9
2022-08-19T01:11:10.123Z,1009.9
2022-08-19T01:12:10.216Z,1009.8
2022-08-19T01:13:10.125Z,1009.8
2022-08-19T01:14:10.125Z,1009.8
2022-08-19T01:15:10.123Z,1009.8
2022-08-19T01:16:10.122Z,1009.8
2022-08-19T01:17:10.129Z,1009.8
2022-08-19T01:18:10.147Z,1009.8
2022-08-19T01:19:10.128Z,1009.8
2022-08-19T01:20:10.127Z,1009.8
2022-08-19T01:21:10.138Z,1009.9
2022-08-19T01:22:14.135Z,1009.9
2022-08-19T01:23:10.130Z,1009.9
2022-08-19T01:24:10.121Z,1009.9
2022-08-19T01:25:13.555Z,1010
2022-08-19T01:26:10.119Z,1009.9
2022-08-19T01:27:10.824Z,1010
2022-08-19T01:28:10.908Z,1010
2022-08-19T01:29:10.134Z,1010
2022-08-19T01:30:10.128Z,1010
2022-08-19T01:31:10.126Z,1010
2022-08-19T01:32:10.127Z,1010
2022-08-19T01:33:10.133Z,1010
2022-08-19T01:34:10.135Z,1010
2022-08-19T01:35:10.121Z,1010
2022-08-19T01:36:10.129Z,1009.9
2022-08-19T01:37:10.133Z,1010
2022-08-19T01:38:10.134Z,1009.9
2022-08-19T01:40:10.216Z,1009.9
2022-08-19T01:41:11.048Z,1009.9
2022-08-19T01:42:10.140Z,1009.9
2022-08-19T01:43:10.137Z,1009.9
2022-08-19T01:44:18.938Z,1009.9
2022-08-19T01:45:10.133Z,1009.8
2022-08-19T01:46:10.168Z,1009.8
2022-08-19T01:49:10.141Z,1009.8
2022-08-19T01:50:10.143Z,1009.9
2022-08-19T01:51:10.132Z,1009.9
2022-08-19T01:52:10.142Z,1009.9
2022-08-19T01:53:10.149Z,1009.9
2022-08-19T01:54:10.145Z,1009.9
2022-08-19T01:55:10.134Z,1009.8
2022-08-19T01:56:10.145Z,1009.9
2022-08-19T01:57:10.136Z,1009.9
2022-08-19T01:58:10.148Z,1009.9
2022-08-19T02:00:10.139Z,1009.9
2022-08-19T02:01:10.238Z,1010
2022-08-19T02:02:10.136Z,1010
2022-08-19T02:03:10.142Z,1010
2022-08-19T02:04:10.149Z,1009.9
2022-08-19T02:06:10.149Z,1010
2022-08-19T02:07:10.142Z,1010
2022-08-19T02:08:10.150Z,1010
2022-08-19T02:10:12.278Z,1009.9
2022-08-19T02:11:10.147Z,1009.9
2022-08-19T02:12:10.161Z,1009.9
2022-08-19T02:13:10.139Z,1009.9
2022-08-19T02:14:10.149Z,1009.9
2022-08-19T02:15:10.149Z,1009.9
2022-08-19T02:16:10.149Z,1009.8
2022-08-19T02:17:10.174Z,1009.8
2022-08-19T02:18:10.163Z,1009.8
2022-08-19T02:19:10.257Z,1009.8
2022-08-19T02:20:10.157Z,1009.8
2022-08-19T02:21:10.155Z,1009.8
2022-08-19T02:22:10.152Z,1009.8
2022-08-19T02:23:13.849Z,1009.8
2022-08-19T02:24:10.154Z,1009.8
2022-08-19T02:25:10.154Z,1009.8
2022-08-19T02:26:10.155Z,1009.8
2022-08-19T02:27:10.155Z,1009.8
2022-08-19T02:28:10.169Z,1009.9
2022-08-19T02:29:10.190Z,1009.9
2022-08-19T02:31:10.167Z,1009.9
2022-08-19T02:32:10.166Z,1009.9
2022-08-19T02:33:10.166Z,1010
2022-08-19T02:34:10.157Z,1009.9
2022-08-19T02:35:12.153Z,1010
2022-08-19T02:36:10.153Z,1010
2022-08-19T02:37:10.162Z,1010
2022-08-19T02:38:10.165Z,1010.1
2022-08-19T02:40:12.644Z,1010.1
2022-08-19T02:41:10.156Z,1010.1
2022-08-19T02:42:10.157Z,1010
2022-08-19T02:43:10.169Z,1010
2022-08-19T02:44:28.883Z,1010.1
2022-08-19T02:45:10.164Z,1010
2022-08-19T02:47:10.234Z,1010
2022-08-19T02:48:21.244Z,1010
2022-08-19T02:49:10.166Z,1010
2022-08-19T02:50:10.173Z,1009.9
2022-08-19T02:51:10.162Z,1009.9
2022-08-19T02:52:10.561Z,1009.9
2022-08-19T02:53:10.175Z,1009.9
2022-08-19T02:54:10.207Z,1009.9
2022-08-19T02:55:10.167Z,1009.9
2022-08-19T02:56:10.172Z,1009.9
2022-08-19T02:57:10.177Z,1009.9
2022-08-19T02:58:10.175Z,1009.9
2022-08-19T02:59:11.247Z,1009.9
2022-08-19T03:00:10.175Z,1009.9
2022-08-19T03:01:10.190Z,1010
2022-08-19T03:02:10.175Z,1010
2022-08-19T03:03:10.174Z,1009.9
2022-08-19T03:04:10.205Z,1010
2022-08-19T03:05:10.174Z,1010
2022-08-19T03:06:10.168Z,1010
2022-08-19T03:07:11.234Z,1009.9
2022-08-19T03:08:10.174Z,1009.9
2022-08-19T03:09:10.179Z,1009.9
2022-08-19T03:10:10.172Z,1009.9
2022-08-19T03:11:10.184Z,1010
2022-08-19T03:13:10.199Z,1010
2022-08-19T03:14:10.171Z,1010
2022-08-19T03:15:10.180Z,1010
2022-08-19T03:16:10.169Z,1010
2022-08-19T03:17:10.191Z,1010
2022-08-19T03:18:10.185Z,1010
2022-08-19T03:19:10.179Z,1009.9
2022-08-19T03:20:10.179Z,1009.9
2022-08-19T03:21:12.236Z,1009.9
2022-08-19T03:22:10.187Z,1009.9
2022-08-19T03:23:10.177Z,1009.9
2022-08-19T03:24:10.178Z,1009.9
2022-08-19T03:25:10.186Z,1009.9
2022-08-19T03:26:16.343Z,1009.9
2022-08-19T03:27:10.181Z,1009.9
2022-08-19T03:28:10.186Z,1009.9
2022-08-19T03:29:10.237Z,1009.9
2022-08-19T03:30:11.571Z,1009.9
2022-08-19T03:31:45.626Z,1009.9
2022-08-19T03:32:10.185Z,1009.9
2022-08-19T03:33:10.189Z,1009.9
2022-08-19T03:34:10.185Z,1009.9
2022-08-19T03:35:10.189Z,1010
2022-08-19T03:36:10.199Z,1010
2022-08-19T03:37:10.190Z,1010
2022-08-19T03:38:10.195Z,1010
2022-08-19T03:40:10.288Z,1010
2022-08-19T03:41:10.201Z,1009.9
2022-08-19T03:42:47.787Z,1010
2022-08-19T03:44:11.032Z,1010
2022-08-19T03:46:10.196Z,1009.9
2022-08-19T03:47:10.186Z,1010
2022-08-19T03:48:10.194Z,1010
2022-08-19T03:49:10.193Z,1010
2022-08-19T03:50:10.191Z,1010
2022-08-19T03:51:10.196Z,1010
2022-08-19T03:52:10.201Z,1010
2022-08-19T03:53:10.205Z,1010
2022-08-19T03:54:10.199Z,1010
2022-08-19T03:55:10.192Z,1010
2022-08-19T03:56:10.197Z,1010
2022-08-19T03:57:10.198Z,1010
2022-08-19T03:58:10.217Z,1010
2022-08-19T04:00:13.806Z,1009.9
2022-08-19T04:01:10.230Z,1010
2022-08-19T04:02:10.338Z,1010
2022-08-19T04:04:10.196Z,1009.9
2022-08-19T04:05:10.209Z,1010
2022-08-19T04:06:10.220Z,1009.9
2022-08-19T04:07:10.204Z,1009.9
2022-08-19T04:08:13.768Z,1010
2022-08-19T04:09:10.205Z,1010
2022-08-19T04:10:10.712Z,1010.1
2022-08-19T04:11:10.205Z,1010.1
2022-08-19T04:13:10.202Z,1010.1
2022-08-19T04:14:10.211Z,1010
2022-08-19T04:15:10.202Z,1010.1
2022-08-19T04:16:10.202Z,1010
2022-08-19T04:17:10.209Z,1010
2022-08-19T04:18:10.219Z,1010
2022-08-19T04:19:10.207Z,1010
2022-08-19T04:20:10.229Z,1010
2022-08-19T04:21:10.218Z,1009.9
2022-08-19T04:22:10.206Z,1009.9
2022-08-19T04:23:10.211Z,1009.9
2022-08-19T04:24:10.206Z,1010
2022-08-19T04:25:10.206Z,1010
2022-08-19T04:26:10.269Z,1010
2022-08-19T04:28:10.214Z,1010
2022-08-19T04:29:12.519Z,1010
2022-08-19T04:30:10.238Z,1010
2022-08-19T04:31:10.217Z,1010
2022-08-19T04:34:10.214Z,1010
2022-08-19T04:35:17.484Z,1010
2022-08-19T04:36:10.249Z,1010
2022-08-19T04:37:10.220Z,1010
2022-08-19T04:38:10.213Z,1010
2022-08-19T04:39:10.220Z,1010
2022-08-19T04:41:10.254Z,1010
2022-08-19T04:42:10.210Z,1010.1
2022-08-19T04:43:10.212Z,1010.1
2022-08-19T04:44:10.218Z,1010.1
2022-08-19T04:45:12.287Z,1010.1
2022-08-19T04:46:10.218Z,1010.1
2022-08-19T04:47:11.005Z,1010.1
2022-08-19T04:48:26.255Z,1010.1
2022-08-19T04:49:10.496Z,1010.1
2022-08-19T04:50:10.230Z,1010.1
2022-08-19T04:51:10.260Z,1010.2
2022-08-19T04:52:10.226Z,1010.2
2022-08-19T04:53:10.221Z,1010.2
2022-08-19T04:55:10.233Z,1010.2
2022-08-19T04:56:10.267Z,1010.1
2022-08-19T04:57:10.228Z,1010.2
2022-08-19T04:58:10.239Z,1010.2
2022-08-19T04:59:10.226Z,1010.2
2022-08-19T05:00:10.241Z,1010.2
2022-08-19T05:01:10.286Z,1010.2
2022-08-19T05:02:10.257Z,1010.2
2022-08-19T05:03:10.239Z,1010.2
2022-08-19T05:04:10.222Z,1010.3
2022-08-19T05:05:10.227Z,1010.3
2022-08-19T05:07:10.241Z,1010.3
2022-08-19T05:08:10.232Z,1010.3
2022-08-19T05:09:10.232Z,1010.3
2022-08-19T05:10:10.237Z,1010.4
2022-08-19T05:11:10.221Z,1010.4
2022-08-19T05:12:10.235Z,1010.4
2022-08-19T05:13:10.239Z,1010.4
2022-08-19T05:14:10.245Z,1010.4
2022-08-19T05:16:10.241Z,1010.4
2022-08-19T05:17:28.976Z,1010.4
2022-08-19T05:18:10.376Z,1010.4
2022-08-19T05:19:10.239Z,1010.4
2022-08-19T05:20:10.244Z,1010.4
2022-08-19T05:21:10.251Z,1010.4
2022-08-19T05:22:10.232Z,1010.4
2022-08-19T05:23:20.543Z,1010.4
2022-08-19T05:24:10.244Z,1010.4
2022-08-19T05:25:13.012Z,1010.5
2022-08-19T05:26:10.237Z,1010.5
2022-08-19T05:27:10.235Z,1010.5
2022-08-19T05:28:10.237Z,1010.5
2022-08-19T05:29:10.365Z,1010.5
2022-08-19T05:30:10.252Z,1010.6
2022-08-19T05:31:10.244Z,1010.5
2022-08-19T05:32:10.258Z,1010.5
2022-08-19T05:33:10.248Z,1010.5
2022-08-19T05:34:18.371Z,1010.6
2022-08-19T05:35:10.242Z,1010.5
2022-08-19T05:37:10.246Z,1010.5
2022-08-19T05:38:10.251Z,1010.6
2022-08-19T05:39:10.249Z,1010.6
2022-08-19T05:41:10.252Z,1010.5
2022-08-19T05:42:10.253Z,1010.6
2022-08-19T05:43:10.244Z,1010.5
2022-08-19T05:44:10.252Z,1010.5
2022-08-19T05:45:10.255Z,1010.5
2022-08-19T05:46:10.252Z,1010.5
2022-08-19T05:47:10.239Z,1010.5
2022-08-19T05:49:10.254Z,1010.5
2022-08-19T05:50:10.260Z,1010.5
2022-08-19T05:51:10.255Z,1010.5
2022-08-19T05:52:10.256Z,1010.5
2022-08-19T05:53:10.259Z,1010.5
2022-08-19T05:54:10.253Z,1010.6
2022-08-19T05:55:10.252Z,1010.6
2022-08-19T05:56:10.248Z,1010.6
2022-08-19T05:58:10.281Z,1010.6
2022-08-19T05:59:10.259Z,1010.6
2022-08-19T06:00:10.261Z,1010.6
2022-08-19T06:01:10.265Z,1010.6
2022-08-19T06:02:10.357Z,1010.6
2022-08-19T06:03:13.266Z,1010.6
2022-08-19T06:04:10.259Z,1010.6
2022-08-19T06:05:10.285Z,1010.6
2022-08-19T06:06:10.254Z,1010.6
2022-08-19T06:07:12.491Z,1010.5
2022-08-19T06:08:10.279Z,1010.5
2022-08-19T06:09:10.260Z,1010.5
2022-08-19T06:10:10.259Z,1010.5
2022-08-19T06:11:10.262Z,1010.5
2022-08-19T06:12:10.260Z,1010.5
2022-08-19T06:13:10.272Z,1010.5
2022-08-19T06:14:10.261Z,1010.5
2022-08-19T06:15:10.260Z,1010.5
2022-08-19T06:16:10.260Z,1010.5
2022-08-19T06:17:10.267Z,1010.5
2022-08-19T06:19:10.270Z,1010.5
2022-08-19T06:20:10.294Z,1010.5
2022-08-19T06:21:10.279Z,1010.4
2022-08-19T06:22:10.270Z,1010.4
2022-08-19T06:23:10.281Z,1010.4
2022-08-19T06:24:10.277Z,1010.4
2022-08-19T06:25:10.304Z,1010.5
2022-08-19T06:26:10.274Z,1010.5
2022-08-19T06:28:15.184Z,1010.5
2022-08-19T06:29:10.273Z,1010.5
2022-08-19T06:30:10.300Z,1010.5
2022-08-19T06:31:10.277Z,1010.5
2022-08-19T06:32:10.278Z,1010.5
2022-08-19T06:33:10.278Z,1010.5
2022-08-19T06:34:10.273Z,1010.5
2022-08-19T06:35:10.283Z,1010.6
2022-08-19T06:36:10.281Z,1010.5
2022-08-19T06:37:10.275Z,1010.5
2022-08-19T06:39:10.290Z,1010.5
2022-08-19T06:40:10.393Z,1010.5
2022-08-19T06:41:10.289Z,1010.5
2022-08-19T06:42:11.074Z,1010.5
2022-08-19T06:43:10.286Z,1010.4
2022-08-19T06:44:13.252Z,1010.5
2022-08-19T06:45:10.292Z,1010.5
2022-08-19T06:47:14.667Z,1010.4
2022-08-19T06:48:10.284Z,1010.4
2022-08-19T06:49:10.296Z,1010.4
2022-08-19T06:50:10.285Z,1010.4
2022-08-19T06:52:10.296Z,1010.4
2022-08-19T06:53:10.286Z,1010.4
2022-08-19T06:54:18.989Z,1010.4
2022-08-19T06:55:10.297Z,1010.5
2022-08-19T06:56:10.337Z,1010.5
2022-08-19T06:57:10.299Z,1010.5
2022-08-19T06:58:10.296Z,1010.5
2022-08-19T06:59:10.299Z,1010.5
2022-08-19T07:01:10.303Z,1010.5
2022-08-19T07:02:10.334Z,1010.5
2022-08-19T07:03:13.075Z,1010.5
2022-08-19T07:04:12.063Z,1010.5
2022-08-19T07:05:10.293Z,1010.5
2022-08-19T07:08:10.301Z,1010.4
2022-08-19T07:09:10.300Z,1010.4
2022-08-19T07:10:10.302Z,1010.4
2022-08-19T07:11:10.864Z,1010.4
2022-08-19T07:12:10.308Z,1010.5
2022-08-19T07:13:10.297Z,1010.4
2022-08-19T07:14:19.153Z,1010.5
2022-08-19T07:15:10.310Z,1010.5
2022-08-19T07:16:10.308Z,1010.5
2022-08-19T07:17:10.350Z,1010.5
2022-08-19T07:20:10.455Z,1010.5
2022-08-19T07:21:10.349Z,1010.5
2022-08-19T07:22:13.130Z,1010.5
2022-08-19T07:23:10.318Z,1010.5
2022-08-19T07:24:10.328Z,1010.5
2022-08-19T07:25:10.454Z,1010.5
2022-08-19T07:26:10.355Z,1010.5
2022-08-19T07:28:20.199Z,1010.6
2022-08-19T07:29:10.317Z,1010.6
2022-08-19T07:30:11.661Z,1010.6
2022-08-19T07:31:10.321Z,1010.7
2022-08-19T07:33:10.319Z,1010.7
2022-08-19T07:34:10.318Z,1010.6
2022-08-19T07:35:10.341Z,1010.7
2022-08-19T07:36:10.355Z,1010.7
2022-08-19T07:37:10.318Z,1010.7
2022-08-19T07:38:10.324Z,1010.7
2022-08-19T07:40:10.406Z,1010.7
2022-08-19T07:41:10.316Z,1010.8
2022-08-19T07:42:10.323Z,1010.8
2022-08-19T07:43:14.058Z,1010.8
2022-08-19T07:44:10.318Z,1010.8
2022-08-19T07:45:10.322Z,1010.8
2022-08-19T07:47:47.866Z,1010.8
2022-08-19T07:49:10.332Z,1010.9
2022-08-19T07:50:10.330Z,1010.8
2022-08-19T07:51:10.337Z,1010.9
2022-08-19T07:52:10.325Z,1010.9
2022-08-19T07:53:10.347Z,1010.9
2022-08-19T07:54:10.332Z,1010.9
2022-08-19T07:55:39.762Z,1010.9
2022-08-19T07:56:10.371Z,1010.9
2022-08-19T07:58:10.342Z,1011
2022-08-19T07:59:10.329Z,1011
2022-08-19T08:01:10.390Z,1011
2022-08-19T08:02:10.429Z,1011
2022-08-19T08:03:10.343Z,1011
2022-08-19T08:04:10.340Z,1011
2022-08-19T08:06:10.336Z,1011
2022-08-19T08:07:10.343Z,1011.1
2022-08-19T08:08:10.347Z,1011.1
2022-08-19T08:09:10.375Z,1011.1
2022-08-19T08:10:20.531Z,1011.1
2022-08-19T08:11:10.376Z,1011.1
2022-08-19T08:12:32.486Z,1011.1
2022-08-19T08:13:11.188Z,1011.1
2022-08-19T08:14:10.352Z,1011.1
2022-08-19T08:15:12.535Z,1011.1
2022-08-19T08:16:13.961Z,1011.1
2022-08-19T08:17:10.987Z,1011.1
2022-08-19T08:20:10.343Z,1011.2
2022-08-19T08:21:10.346Z,1011.2
2022-08-19T08:22:10.375Z,1011.2
2022-08-19T08:23:10.344Z,1011.1
2022-08-19T08:25:10.354Z,1011.1
2022-08-19T08:27:11.092Z,1011.1
2022-08-19T08:28:11.375Z,1011.1
2022-08-19T08:29:11.481Z,1011.1
2022-08-19T08:31:10.356Z,1011.2
2022-08-19T08:32:14.252Z,1011.2
2022-08-19T08:34:10.354Z,1011.2
2022-08-19T08:35:10.346Z,1011.2
2022-08-19T08:36:10.404Z,1011.2
2022-08-19T08:37:10.365Z,1011.2
2022-08-19T08:38:10.359Z,1011.2
2022-08-19T08:39:10.360Z,1011.2
2022-08-19T08:41:10.449Z,1011.2
2022-08-19T08:42:18.071Z,1011.2
2022-08-19T08:43:11.180Z,1011.2
2022-08-19T08:44:10.398Z,1011.3
2022-08-19T08:45:10.355Z,1011.2
2022-08-19T08:46:12.135Z,1011.2
2022-08-19T08:47:10.359Z,1011.2
2022-08-19T08:48:24.037Z,1011.2
2022-08-19T08:49:10.401Z,1011.2
2022-08-19T08:50:10.399Z,1011.2
2022-08-19T08:52:10.385Z,1011.2
2022-08-19T08:53:10.370Z,1011.2
2022-08-19T08:54:10.377Z,1011.2
2022-08-19T08:55:10.698Z,1011.2
2022-08-19T08:56:10.370Z,1011.2
2022-08-19T08:57:10.369Z,1011.2
2022-08-19T08:58:10.382Z,1011.2
2022-08-19T08:59:10.364Z,1011.2
2022-08-19T09:01:10.404Z,1011.2
2022-08-19T09:03:10.364Z,1011.2
2022-08-19T09:05:10.372Z,1011.2
2022-08-19T09:06:12.161Z,1011.2
2022-08-19T09:07:26.415Z,1011.2
2022-08-19T09:08:12.043Z,1011.2
2022-08-19T09:09:12.191Z,1011.2
2022-08-19T09:10:10.371Z,1011.2
2022-08-19T09:11:10.406Z,1011.2
2022-08-19T09:12:11.804Z,1011.2
2022-08-19T09:13:10.380Z,1011.3
2022-08-19T09:14:29.257Z,1011.2
2022-08-19T09:15:10.379Z,1011.2
2022-08-19T09:16:10.382Z,1011.2
2022-08-19T09:17:10.374Z,1011.2
2022-08-19T09:20:10.383Z,1011.2
2022-08-19T09:21:10.373Z,1011.1
2022-08-19T09:22:10.620Z,1011.1
2022-08-19T09:23:10.388Z,1011.1
2022-08-19T09:24:10.378Z,1011.2
2022-08-19T09:25:10.384Z,1011.2
2022-08-19T09:26:10.471Z,1011.2
2022-08-19T09:27:18.530Z,1011.2
2022-08-19T09:28:20.331Z,1011.2
2022-08-19T09:29:10.394Z,1011.2
2022-08-19T09:30:10.392Z,1011.2
2022-08-19T09:31:10.396Z,1011.2
2022-08-19T09:32:26.456Z,1011.2
2022-08-19T09:33:10.398Z,1011.1
2022-08-19T09:34:20.810Z,1011.1
2022-08-19T09:35:10.384Z,1011.1
2022-08-19T09:36:10.402Z,1011.2
2022-08-19T09:37:10.396Z,1011.2
2022-08-19T09:38:10.389Z,1011.2
2022-08-19T09:39:16.051Z,1011.2
2022-08-19T09:41:10.389Z,1011.2
2022-08-19T09:42:16.364Z,1011.1
2022-08-19T09:43:13.305Z,1011.1
2022-08-19T09:45:10.599Z,1011.1
2022-08-19T09:46:10.437Z,1011.1
2022-08-19T09:47:10.396Z,1011.1
2022-08-19T09:50:10.402Z,1011.1
2022-08-19T09:51:11.970Z,1011.1
2022-08-19T09:52:10.398Z,1011.1
2022-08-19T09:53:10.414Z,1011.1
2022-08-19T09:54:11.397Z,1011.1
2022-08-19T09:55:10.437Z,1011.1
2022-08-19T09:56:10.406Z,1011.1
2022-08-19T09:57:10.405Z,1011.1
2022-08-19T09:58:10.401Z,1011.1
2022-08-19T09:59:10.397Z,1011.1
2022-08-19T10:00:10.405Z,1011.1
2022-08-19T10:02:10.827Z,1011.1
2022-08-19T10:03:10.404Z,1011
2022-08-19T10:04:19.683Z,1011.1
2022-08-19T10:05:10.407Z,1011.1
2022-08-19T10:06:14.914Z,1011.1
2022-08-19T10:07:10.414Z,1011
2022-08-19T10:08:13.176Z,1011.1
2022-08-19T10:09:10.418Z,1011
2022-08-19T10:10:10.411Z,1011
2022-08-19T10:11:28.692Z,1011.1
2022-08-19T10:12:11.261Z,1011
2022-08-19T10:13:10.408Z,1011
2022-08-19T10:15:10.437Z,1011
2022-08-19T10:16:10.423Z,1011.1
2022-08-19T10:17:18.046Z,1011
2022-08-19T10:19:10.420Z,1011
2022-08-19T10:20:10.440Z,1011
2022-08-19T10:21:11.659Z,1011
2022-08-19T10:23:10.444Z,1011
2022-08-19T10:24:10.452Z,1011
2022-08-19T10:25:10.440Z,1011
2022-08-19T10:27:10.414Z,1011
2022-08-19T10:28:10.542Z,1011
2022-08-19T10:29:10.417Z,1011
2022-08-19T10:31:10.449Z,1010.9
2022-08-19T10:32:10.441Z,1010.9
2022-08-19T10:33:11.224Z,1010.9
2022-08-19T10:34:17.594Z,1011
2022-08-19T10:35:10.429Z,1011
2022-08-19T10:36:10.491Z,1010.9
2022-08-19T10:37:10.877Z,1011
2022-08-19T10:38:10.429Z,1010.9
2022-08-19T10:40:10.469Z,1010.8
2022-08-19T10:41:10.432Z,1010.8
2022-08-19T10:42:10.451Z,1010.9
2022-08-19T10:44:10.431Z,1010.8
2022-08-19T10:45:10.425Z,1010.9
2022-08-19T10:46:13.796Z,1010.8
2022-08-19T10:47:17.746Z,1010.8
2022-08-19T10:48:12.212Z,1010.8
2022-08-19T10:50:11.788Z,1010.9
2022-08-19T10:51:10.436Z,1010.8
2022-08-19T10:52:10.439Z,1010.9
2022-08-19T10:53:10.439Z,1010.8
2022-08-19T10:54:12.690Z,1010.8
2022-08-19T10:55:10.438Z,1010.9
2022-08-19T10:56:10.460Z,1010.9
2022-08-19T10:57:10.437Z,1010.8
2022-08-19T10:58:10.613Z,1010.9
2022-08-19T10:59:10.449Z,1010.9
2022-08-19T11:01:10.503Z,1010.9
2022-08-19T11:02:10.450Z,1010.9
2022-08-19T11:03:10.441Z,1010.9
2022-08-19T11:05:13.588Z,1010.9
2022-08-19T11:06:10.440Z,1010.8
2022-08-19T11:07:10.458Z,1010.9
2022-08-19T11:08:23.237Z,1010.9
2022-08-19T11:09:10.469Z,1010.9
2022-08-19T11:10:13.167Z,1010.9
2022-08-19T11:11:10.473Z,1010.8
2022-08-19T11:12:10.448Z,1010.9
2022-08-19T11:13:10.450Z,1010.9
2022-08-19T11:14:10.457Z,1010.9
2022-08-19T11:15:10.501Z,1010.9
2022-08-19T11:16:10.472Z,1010.9
2022-08-19T11:17:10.453Z,1010.9
2022-08-19T11:18:13.396Z,1010.9
2022-08-19T11:19:10.461Z,1010.9
2022-08-19T11:20:10.471Z,1010.9
2022-08-19T11:22:10.475Z,1010.9
2022-08-19T11:23:10.465Z,1010.9
2022-08-19T11:24:10.465Z,1010.9
2022-08-19T11:26:10.480Z,1010.9
2022-08-19T11:27:10.458Z,1010.9
2022-08-19T11:28:10.457Z,1010.9
2022-08-19T11:29:10.488Z,1010.9
2022-08-19T11:30:13.165Z,1010.9
2022-08-19T11:31:10.455Z,1010.9
2022-08-19T11:32:10.461Z,1010.9
2022-08-19T11:33:10.464Z,1010.9
2022-08-19T11:34:10.461Z,1010.9
2022-08-19T11:35:10.466Z,1010.9
2022-08-19T11:36:10.460Z,1010.9
2022-08-19T11:37:10.462Z,1010.9
2022-08-19T11:38:10.457Z,1010.8
2022-08-19T11:39:10.462Z,1010.8
2022-08-19T11:40:10.633Z,1010.8
2022-08-19T11:41:10.462Z,1010.8
2022-08-19T11:42:10.472Z,1010.8
2022-08-19T11:43:10.512Z,1010.8
2022-08-19T11:44:10.475Z,1010.8
2022-08-19T11:45:10.458Z,1010.7
2022-08-19T11:46:10.462Z,1010.7
2022-08-19T11:47:10.478Z,1010.7
2022-08-19T11:50:10.576Z,1010.8
2022-08-19T11:51:10.498Z,1010.7
2022-08-19T11:52:10.470Z,1010.7
2022-08-19T11:53:10.510Z,1010.7
2022-08-19T11:55:10.474Z,1010.7
2022-08-19T11:56:10.476Z,1010.6
2022-08-19T11:57:10.478Z,1010.6
2022-08-19T11:58:19.043Z,1010.6
2022-08-19T11:59:14.185Z,1010.6
2022-08-19T12:00:10.473Z,1010.6
2022-08-19T12:01:10.490Z,1010.6
2022-08-19T12:02:10.482Z,1010.6
2022-08-19T12:04:10.498Z,1010.6
2022-08-19T12:05:12.790Z,1010.6
2022-08-19T12:06:10.494Z,1010.6
2022-08-19T12:08:10.480Z,1010.7
2022-08-19T12:10:10.818Z,1010.7
2022-08-19T12:11:10.486Z,1010.6
2022-08-19T12:12:10.485Z,1010.7
2022-08-19T12:13:10.489Z,1010.6
2022-08-19T12:14:10.479Z,1010.6
2022-08-19T12:16:10.482Z,1010.6
2022-08-19T12:17:10.494Z,1010.6
2022-08-19T12:18:10.482Z,1010.5
2022-08-19T12:19:10.481Z,1010.6
2022-08-19T12:20:10.491Z,1010.5
2022-08-19T12:21:10.481Z,1010.6
2022-08-19T12:22:10.492Z,1010.6
2022-08-19T12:23:10.480Z,1010.6
2022-08-19T12:24:10.485Z,1010.6
2022-08-19T12:25:10.499Z,1010.5
2022-08-19T12:26:10.498Z,1010.5
2022-08-19T12:27:12.806Z,1010.4
2022-08-19T12:28:10.488Z,1010.5
2022-08-19T12:29:10.494Z,1010.5
2022-08-19T12:31:10.485Z,1010.5
2022-08-19T12:32:10.497Z,1010.4
2022-08-19T12:33:10.506Z,1010.4
2022-08-19T12:34:10.491Z,1010.3
2022-08-19T12:35:10.494Z,1010.4
2022-08-19T12:36:10.506Z,1010.4
2022-08-19T12:37:10.501Z,1010.4
2022-08-19T12:38:10.518Z,1010.4
2022-08-19T12:39:10.660Z,1010.5
2022-08-19T12:40:10.636Z,1010.4
2022-08-19T12:41:10.507Z,1010.4
2022-08-19T12:42:10.496Z,1010.4
2022-08-19T12:43:10.495Z,1010.4
2022-08-19T12:44:10.505Z,1010.4
2022-08-19T12:45:10.501Z,1010.4
2022-08-19T12:47:10.513Z,1010.4
2022-08-19T12:48:33.898Z,1010.4
2022-08-19T12:49:26.548Z,1010.4
2022-08-19T12:50:10.507Z,1010.4
2022-08-19T12:52:10.510Z,1010.3
2022-08-19T12:54:10.518Z,1010.3
2022-08-19T12:56:12.298Z,1010.3
2022-08-19T12:57:10.504Z,1010.4
2022-08-19T12:58:10.514Z,1010.4
2022-08-19T12:59:10.507Z,1010.4
2022-08-19T13:00:10.516Z,1010.4
2022-08-19T13:01:10.573Z,1010.4
2022-08-19T13:02:10.513Z,1010.4
2022-08-19T13:03:10.520Z,1010.4
2022-08-19T13:04:10.516Z,1010.3
2022-08-19T13:05:10.521Z,1010.4
2022-08-19T13:06:10.505Z,1010.4
2022-08-19T13:07:10.522Z,1010.4
2022-08-19T13:08:10.529Z,1010.4
2022-08-19T13:09:10.516Z,1010.4
2022-08-19T13:10:10.510Z,1010.4
2022-08-19T13:13:10.524Z,1010.4
2022-08-19T13:14:10.535Z,1010.3
2022-08-19T13:15:11.080Z,1010.3
2022-08-19T13:16:10.512Z,1010.3
2022-08-19T13:17:10.520Z,1010.3
2022-08-19T13:18:10.541Z,1010.3
2022-08-19T13:19:10.525Z,1010.3
2022-08-19T13:21:10.518Z,1010.3
2022-08-19T13:22:14.971Z,1010.2
2022-08-19T13:23:10.623Z,1010.2
2022-08-19T13:24:10.526Z,1010.2
2022-08-19T13:26:10.522Z,1010.2
2022-08-19T13:27:10.532Z,1010.2
2022-08-19T13:28:10.527Z,1010.2
2022-08-19T13:29:10.526Z,1010.2
2022-08-19T13:30:10.536Z,1010.2
2022-08-19T13:31:10.528Z,1010.1
2022-08-19T13:32:10.588Z,1010.1
2022-08-19T13:34:10.530Z,1010.1
2022-08-19T13:35:13.787Z,1010.1
2022-08-19T13:36:10.527Z,1010.1
2022-08-19T13:37:10.540Z,1010.1
2022-08-19T13:38:11.937Z,1010
2022-08-19T13:39:10.541Z,1010
2022-08-19T13:40:10.606Z,1010
2022-08-19T13:41:14.681Z,1010
2022-08-19T13:42:10.540Z,1010
2022-08-19T13:43:13.604Z,1010
2022-08-19T13:45:10.545Z,1009.9
2022-08-19T13:46:10.577Z,1010
2022-08-19T13:47:10.538Z,1010
2022-08-19T13:48:10.550Z,1010
2022-08-19T13:49:10.537Z,1010
2022-08-19T13:50:10.544Z,1009.9
2022-08-19T13:51:10.538Z,1009.9
2022-08-19T13:53:10.541Z,1009.9
2022-08-19T13:55:10.544Z,1009.9
2022-08-19T13:56:10.545Z,1009.9
2022-08-19T13:57:10.545Z,1009.9
2022-08-19T13:58:10.545Z,1009.8
2022-08-19T13:59:10.540Z,1009.8
2022-08-19T14:00:10.554Z,1009.8
2022-08-19T14:03:10.547Z,1009.9
2022-08-19T14:04:10.544Z,1009.8
2022-08-19T14:05:10.551Z,1009.9
2022-08-19T14:06:10.552Z,1009.8
2022-08-19T14:08:10.554Z,1009.8
2022-08-19T14:09:10.563Z,1009.8
2022-08-19T14:10:10.554Z,1009.8
2022-08-19T14:11:10.567Z,1009.8
2022-08-19T14:12:10.549Z,1009.8
2022-08-19T14:13:10.559Z,1009.8
2022-08-19T14:14:14.469Z,1009.8
2022-08-19T14:16:10.554Z,1009.8
2022-08-19T14:17:10.554Z,1009.9
2022-08-19T14:18:10.577Z,1009.8
2022-08-19T14:19:10.577Z,1009.8
2022-08-19T14:20:11.366Z,1009.8
2022-08-19T14:21:10.563Z,1009.8
2022-08-19T14:22:10.556Z,1009.8
2022-08-19T14:23:10.563Z,1009.8